Winona, KS (67764)

12:10 PM CDT on May 28, 2015 (GMT -0500)
SCFarms | | Change Station
CLOSE
Current Station
Personal Weather Station
Location: Levant, KS
Elevation: 3293 ft
Nearby Weather Stations

Elev 3293 ft 39.30 °N, 101.20 °W | Updated 1 minute ago

Partly Cloudy
Partly Cloudy
67.1 °F
Feels Like 67.1 °F
N
10.0
Wind Variable Wind from SE
Gusts 14.0 mph

Today
High -- | Low -- °F
--% Chance of Precip.
Yesterday
High -- | Low -- °F
Precip. -- in
6:22 AM 9:01 PM
Waxing Gibbous, 77% visible
Pressure 30.03 in
Visibility 10.0 miles
Clouds Scattered Clouds 1200 ft
Scattered Clouds 2700 ft
Overcast 3700 ft
Dew Point 62 °F
Humidity 84%
Rainfall 0.00 in
Snow Depth Not available.
UV 3 out of 12
Pollen 6.60 out of 12
Air Quality Not available.
Flu Activity No Activity
METAR KCBK 281655Z AUTO 13011KT 10SM SCT012 SCT027 OVC037 19/17 A3003 RMK AO2

More Conditions Fewer Conditions

Pressure 30.03 in
Visibility 10.0 miles
Clouds Scattered Clouds 1200 ft
Scattered Clouds 2700 ft
Overcast 3700 ft
Dew Point 62 °F
Humidity 84%
Rainfall 0.00 in
Snow Depth Not available.
UV 3 out of 12
Pollen 6.60 out of 12
Air Quality Not available.
Flu Activity No Activity
METAR KCBK 281655Z AUTO 13011KT 10SM SCT012 SCT027 OVC037 19/17 A3003 RMK AO2

More Conditions Fewer Conditions

10-Day Weather Forecast

Almanac

Astronomy

May. 28, 2015 Rise Set
Actual Time
Civil Twilight
Nautical Twilight
Astronomical Twilight
Moon
Length of Visible Light
Length of Day
Tomorrow will be .
, % of the Moon is Illuminated

Today's Extremes

State Highs State Lows

Community

WunderPhotos

Upload Photos

1,825,005 photos uploaded!

WunderBlogs® & News

Nearby

Air Quality

  Air Quality AQ Index Pollutant
Not available.

Snow Depth

Station Depth Elevation

Earthquake Activity

City Distance Mag. Time & Date
Minimum magnitude displayed is 2.5.

Coastal Water Temperatures

Place Temperature

Stations

Nearby Weather Stations

Station Location Temp. Windchill Dew Point Humidity Wind Precip. Elev Updated Type